Time;durP1;ratioP1;P1;durP2;ratioP2;P2;SDS_P1;SDS_P2;PMS_P1;PMS_P2;Temp;Humidity;BMP_temperature;BMP_pressure;BME280_temperature;BME280_humidity;BME280_pressure;Samples;Min_cycle;Max_cycle;Signal;HPM_P1;HPM_P2
2022/04/21 00:00:31;;;;;;;2.03;1.80;;;24.80;58.30;;;;;;5052981;28;20437;-85
2022/04/21 00:02:58;;;;;;;1.73;1.60;;;24.80;58.20;;;;;;5053088;28;20477;-85
2022/04/21 00:05:25;;;;;;;2.17;1.50;;;24.80;58.20;;;;;;5053174;28;20843;-85
2022/04/21 00:07:52;;;;;;;1.83;1.67;;;24.80;58.20;;;;;;5052895;28;20485;-85
2022/04/21 00:10:20;;;;;;;3.50;1.73;;;24.70;58.20;;;;;;5052846;28;20813;-85
2022/04/21 00:12:47;;;;;;;2.07;1.70;;;24.80;58.30;;;;;;5052841;28;20464;-85
2022/04/21 00:15:14;;;;;;;2.10;1.13;;;24.80;58.30;;;;;;5052799;28;20449;-85
2022/04/21 00:17:42;;;;;;;1.90;1.70;;;24.70;58.20;;;;;;5052614;28;20441;-85
2022/04/21 00:20:10;;;;;;;2.13;1.50;;;24.80;58.40;;;;;;5052793;28;20841;-85
2022/04/21 00:25:21;;;;;;;2.33;1.50;;;24.80;58.40;;;;;;5052773;28;20557;-85
2022/04/21 00:27:48;;;;;;;2.03;1.50;;;24.70;58.40;;;;;;5054380;28;20478;-85
2022/04/21 00:30:18;;;;;;;2.00;1.70;;;24.70;58.30;;;;;;5056644;28;20480;-85
2022/04/21 00:32:47;;;;;;;2.13;1.90;;;24.70;58.30;;;;;;5056247;28;20480;-85
2022/04/21 00:35:15;;;;;;;1.67;1.37;;;24.70;58.50;;;;;;5056602;28;20516;-85
2022/04/21 00:37:47;;;;;;;1.90;1.57;;;24.70;58.50;;;;;;5056436;28;20460;-85
2022/04/21 00:40:14;;;;;;;1.60;1.50;;;24.70;58.60;;;;;;5056676;28;20442;-85
2022/04/21 00:42:42;;;;;;;1.47;1.37;;;24.70;58.50;;;;;;5056499;28;20437;-85
2022/04/21 00:45:10;;;;;;;2.20;1.50;;;24.70;58.40;;;;;;5056459;28;20453;-86
2022/04/21 00:47:40;;;;;;;1.37;1.27;;;24.70;58.50;;;;;;5038923;28;20485;-85
2022/04/21 00:50:10;;;;;;;1.70;1.33;;;24.70;58.50;;;;;;5056469;28;20445;-85
2022/04/21 00:52:39;;;;;;;1.60;1.50;;;24.70;58.60;;;;;;5056432;28;20499;-85
2022/04/21 00:55:07;;;;;;;1.57;1.47;;;24.70;58.50;;;;;;5056493;28;20450;-85
2022/04/21 00:57:34;;;;;;;2.00;1.50;;;24.70;58.70;;;;;;5056011;28;20869;-85
2022/04/21 01:00:01;;;;;;;2.77;1.53;;;24.70;58.60;;;;;;5056309;28;20461;-85
2022/04/21 01:05:18;;;;;;;1.77;1.40;;;24.70;58.50;;;;;;5048985;28;20488;-85
2022/04/21 01:07:45;;;;;;;1.77;1.53;;;24.70;58.50;;;;;;5037985;28;20469;-85
2022/04/21 01:10:12;;;;;;;1.40;1.30;;;24.70;58.60;;;;;;5056275;28;20441;-85
2022/04/21 01:12:40;;;;;;;2.63;1.60;;;24.70;58.60;;;;;;5056057;28;20438;-85
2022/04/21 01:15:08;;;;;;;1.70;1.33;;;24.70;58.60;;;;;;5055420;28;20449;-85
2022/04/21 01:17:35;;;;;;;2.00;1.40;;;24.70;58.80;;;;;;5055994;28;20444;-85
2022/04/21 01:20:03;;;;;;;1.67;1.30;;;24.70;58.90;;;;;;5055989;28;20445;-85
2022/04/21 01:22:32;;;;;;;1.50;1.40;;;24.70;58.80;;;;;;5055862;28;20444;-85
2022/04/21 01:24:59;;;;;;;1.40;1.20;;;24.70;58.90;;;;;;5055566;28;20438;-85
2022/04/21 01:27:28;;;;;;;1.40;1.30;;;24.70;58.80;;;;;;5037836;28;20473;-85
2022/04/21 01:29:55;;;;;;;1.40;1.20;;;24.70;58.90;;;;;;5055814;28;20442;-85
2022/04/21 01:32:22;;;;;;;1.40;1.30;;;24.70;58.80;;;;;;5055375;28;20481;-85
2022/04/21 01:34:49;;;;;;;1.23;1.13;;;24.70;58.60;;;;;;5037662;28;20913;-85
2022/04/21 01:42:45;;;;;;;1.47;1.37;;;24.70;58.70;;;;;;5055283;28;20429;-85
2022/04/21 01:45:12;;;;;;;1.60;1.20;;;24.70;58.80;;;;;;5055189;28;20444;-85
2022/04/21 01:47:39;;;;;;;1.43;1.33;;;24.70;58.60;;;;;;5055050;28;20921;-85
2022/04/21 01:50:07;;;;;;;1.67;1.57;;;24.70;58.70;;;;;;5055123;28;20445;-85
2022/04/21 01:52:36;;;;;;;1.63;1.53;;;24.70;58.80;;;;;;5055262;28;20484;-85
2022/04/21 01:55:06;;;;;;;1.20;1.10;;;24.70;58.80;;;;;;5055392;28;20445;-85
2022/04/21 01:57:33;;;;;;;1.20;1.07;;;24.70;58.80;;;;;;5054807;28;20473;-85
2022/04/21 02:00:00;;;;;;;1.60;1.50;;;24.70;58.70;;;;;;5054909;28;20438;-85
2022/04/21 02:02:29;;;;;;;1.30;1.10;;;24.70;58.90;;;;;;5054812;28;20477;-85
2022/04/21 02:04:56;;;;;;;2.07;1.30;;;24.70;58.90;;;;;;5055046;28;20442;-85
2022/04/21 02:07:24;;;;;;;1.57;1.47;;;24.70;58.80;;;;;;5054823;28;20456;-85
2022/04/21 02:09:51;;;;;;;1.40;1.30;;;24.70;59.00;;;;;;5054699;28;20535;-85
2022/04/21 02:12:21;;;;;;;1.30;1.20;;;24.80;59.00;;;;;;5037018;28;20488;-85
2022/04/21 02:14:47;;;;;;;1.40;1.17;;;24.70;59.00;;;;;;5055114;28;20449;-85
2022/04/21 02:17:14;;;;;;;1.47;1.37;;;24.70;59.00;;;;;;5054910;28;20449;-85
2022/04/21 02:19:41;;;;;;;1.60;1.50;;;24.70;59.10;;;;;;5054560;28;20453;-85
2022/04/21 02:22:08;;;;;;;1.70;1.40;;;24.80;59.10;;;;;;5036870;28;20456;-85
2022/04/21 02:24:35;;;;;;;1.30;1.20;;;24.70;59.10;;;;;;5054803;28;20457;-85
2022/04/21 02:27:01;;;;;;;1.63;1.50;;;24.70;59.00;;;;;;5054635;28;20453;-85
2022/04/21 02:29:29;;;;;;;1.63;1.50;;;24.70;59.10;;;;;;5054730;28;20477;-85
2022/04/21 02:31:56;;;;;;;1.30;1.20;;;24.70;59.10;;;;;;5054471;28;20469;-85
2022/04/21 02:34:23;;;;;;;1.33;1.00;;;24.60;59.10;;;;;;5054575;28;20437;-85
2022/04/21 02:36:49;;;;;;;1.20;1.10;;;24.60;59.00;;;;;;5054503;28;20450;-85
2022/04/21 02:39:16;;;;;;;1.47;1.37;;;24.60;59.00;;;;;;5054365;28;20449;-85
2022/04/21 02:41:43;;;;;;;1.57;1.17;;;24.60;59.10;;;;;;5065641;28;20445;-85
2022/04/21 02:44:10;;;;;;;1.20;1.10;;;24.70;59.20;;;;;;5071746;28;20438;-84
2022/04/21 02:46:38;;;;;;;1.27;1.13;;;24.70;59.40;;;;;;5072657;28;20814;-82
2022/04/21 02:49:05;;;;;;;1.57;1.47;;;24.80;59.40;;;;;;5058853;28;20564;-84
2022/04/21 02:51:32;;;;;;;1.47;1.30;;;24.60;59.20;;;;;;5053945;28;20442;-84
2022/04/21 02:59:29;;;;;;;1.53;1.30;;;24.60;59.20;;;;;;5054171;28;20398;-85
2022/04/21 03:01:57;;;;;;;1.37;1.27;;;24.60;59.00;;;;;;5053789;28;20976;-85
2022/04/21 03:04:24;;;;;;;2.20;1.57;;;24.60;59.10;;;;;;5054093;28;20438;-85
2022/04/21 03:06:50;;;;;;;1.40;1.30;;;24.60;59.10;;;;;;5053784;28;20448;-85
2022/04/21 03:09:17;;;;;;;1.57;1.47;;;24.60;59.00;;;;;;5053593;28;20486;-85
2022/04/21 03:11:44;;;;;;;1.50;1.27;;;24.60;59.20;;;;;;5053942;28;20442;-85
2022/04/21 03:14:10;;;;;;;1.43;1.33;;;24.60;59.20;;;;;;5053644;28;20843;-85
2022/04/21 03:16:37;;;;;;;1.20;1.10;;;24.60;59.10;;;;;;5053459;28;20446;-85
2022/04/21 03:19:05;;;;;;;1.50;1.40;;;24.60;59.20;;;;;;5053598;28;20493;-85
2022/04/21 03:24:22;;;;;;;1.60;1.50;;;24.60;59.10;;;;;;5053732;28;20907;-86
2022/04/21 03:26:51;;;;;;;1.30;1.20;;;24.60;59.30;;;;;;5053451;28;20434;-85
2022/04/21 03:29:18;;;;;;;1.93;1.50;;;24.60;59.00;;;;;;5053063;28;20492;-86
2022/04/21 03:31:45;;;;;;;1.90;1.53;;;24.60;59.10;;;;;;5052657;28;20453;-85
2022/04/21 03:34:14;;;;;;;1.77;1.20;;;24.70;59.30;;;;;;5052666;28;20804;-85
2022/04/21 03:36:45;;;;;;;1.30;1.20;;;24.60;59.20;;;;;;5053188;28;20440;-85
2022/04/21 03:39:12;;;;;;;1.20;0.90;;;24.60;59.20;;;;;;5053466;28;20441;-85
2022/04/21 03:41:39;;;;;;;1.30;1.20;;;24.50;59.20;;;;;;5053408;28;20434;-84
2022/04/21 03:44:06;;;;;;;1.30;1.10;;;24.50;59.10;;;;;;5053105;28;20442;-84
2022/04/21 03:46:33;;;;;;;1.87;1.30;;;24.60;59.20;;;;;;5053468;28;20444;-84
2022/04/21 03:49:00;;;;;;;1.53;1.43;;;24.50;59.10;;;;;;5053039;28;20551;-84
2022/04/21 03:51:28;;;;;;;2.03;1.43;;;24.50;59.10;;;;;;5053047;28;20442;-84
2022/04/21 03:53:55;;;;;;;1.10;1.00;;;24.50;59.30;;;;;;5053064;28;20449;-84
2022/04/21 03:56:22;;;;;;;1.40;1.30;;;24.50;59.10;;;;;;5052231;28;20543;-85
2022/04/21 03:58:49;;;;;;;1.40;1.30;;;24.50;58.90;;;;;;5052980;28;21005;-85
2022/04/21 04:01:16;;;;;;;2.10;1.20;;;24.50;59.10;;;;;;5053111;28;20441;-85
2022/04/21 04:03:43;;;;;;;1.93;1.13;;;24.50;59.10;;;;;;5056493;28;20448;-85
2022/04/21 04:11:37;;;;;;;1.23;1.00;;;24.50;59.30;;;;;;5057188;28;20400;-86
2022/04/21 04:14:06;;;;;;;1.27;1.17;;;24.50;59.30;;;;;;5057031;28;20433;-86
2022/04/21 04:16:35;;;;;;;1.20;1.10;;;24.50;59.30;;;;;;5057134;28;20444;-85
2022/04/21 04:19:05;;;;;;;1.43;1.13;;;24.50;59.30;;;;;;5056934;28;20925;-85
2022/04/21 04:21:31;;;;;;;1.60;1.20;;;24.50;59.30;;;;;;5056679;28;20461;-85
2022/04/21 04:24:01;;;;;;;1.10;1.00;;;24.50;59.40;;;;;;5056646;28;20437;-86
2022/04/21 04:26:27;;;;;;;1.53;1.43;;;24.50;59.30;;;;;;5056751;28;20442;-85
2022/04/21 04:28:54;;;;;;;1.53;1.40;;;24.50;59.30;;;;;;5056671;28;20485;-86
2022/04/21 04:31:21;;;;;;;1.20;1.07;;;24.60;59.40;;;;;;5056535;28;20445;-85
2022/04/21 04:33:48;;;;;;;1.33;1.23;;;24.50;59.20;;;;;;5056687;28;20441;-85
2022/04/21 04:36:16;;;;;;;1.30;1.20;;;24.50;59.20;;;;;;5056882;28;20933;-85
2022/04/21 04:38:44;;;;;;;3.17;1.17;;;24.50;59.20;;;;;;5056567;28;20468;-85
2022/04/21 04:43:57;;;;;;;1.20;1.00;;;24.50;59.20;;;;;;5057315;28;20488;-85
2022/04/21 04:46:34;;;;;;;1.50;1.40;;;24.50;59.90;;;;;;5055597;28;20450;-85
2022/04/21 04:49:02;;;;;;;1.40;1.27;;;24.50;59.30;;;;;;5055848;28;20851;-86
2022/04/21 04:51:28;;;;;;;1.50;1.40;;;24.50;59.20;;;;;;5055155;28;20441;-85
2022/04/21 04:53:55;;;;;;;1.10;1.00;;;24.50;59.10;;;;;;5055643;28;20443;-84
2022/04/21 04:56:24;;;;;;;1.10;1.00;;;24.50;59.20;;;;;;5055272;28;20441;-85
2022/04/21 04:58:51;;;;;;;4.33;1.23;;;24.50;59.20;;;;;;5055936;28;20788;-85
2022/04/21 05:01:26;;;;;;;1.33;1.20;;;24.50;59.20;;;;;;5054826;28;20445;-85
2022/04/21 05:03:54;;;;;;;1.20;1.10;;;24.50;59.20;;;;;;5054108;28;20485;-85
2022/04/21 05:06:22;;;;;;;1.30;1.17;;;24.50;59.20;;;;;;5054575;28;20442;-85
2022/04/21 05:08:49;;;;;;;1.30;1.20;;;24.50;59.20;;;;;;5053980;28;21011;-85
2022/04/21 05:11:16;;;;;;;1.40;1.30;;;24.50;59.10;;;;;;5035795;28;20446;-85
2022/04/21 05:13:44;;;;;;;1.53;1.30;;;24.50;59.10;;;;;;5053351;28;20449;-85
2022/04/21 05:16:11;;;;;;;1.60;1.40;;;24.50;59.10;;;;;;5053834;28;20446;-85
2022/04/21 05:18:38;;;;;;;1.47;1.37;;;24.40;59.10;;;;;;5055172;28;20438;-85
2022/04/21 05:21:05;;;;;;;1.70;1.27;;;24.40;59.20;;;;;;5055194;28;20446;-85
2022/04/21 05:23:35;;;;;;;1.10;1.00;;;24.40;59.10;;;;;;5042347;28;20442;-84
2022/04/21 05:26:02;;;;;;;1.50;1.40;;;24.50;59.10;;;;;;5035557;28;20438;-85
2022/04/21 05:28:30;;;;;;;1.60;1.23;;;24.40;59.10;;;;;;5035429;28;20439;-85
2022/04/21 05:30:58;;;;;;;1.53;1.30;;;24.50;59.10;;;;;;5035545;28;21152;-86
2022/04/21 05:33:27;;;;;;;1.10;0.90;;;24.50;59.10;;;;;;5035727;28;20501;-86
2022/04/21 05:35:55;;;;;;;1.90;1.40;;;24.40;59.00;;;;;;5035897;28;20442;-86
2022/04/21 05:38:22;;;;;;;1.23;1.13;;;24.40;59.00;;;;;;5035198;28;20517;-85
2022/04/21 05:40:50;;;;;;;1.40;1.30;;;24.40;59.00;;;;;;5035567;28;20438;-84
2022/04/21 05:43:18;;;;;;;1.30;1.17;;;24.40;58.90;;;;;;5035578;28;20831;-85
2022/04/21 05:45:46;;;;;;;1.30;1.13;;;24.40;58.90;;;;;;5035192;28;20442;-85
2022/04/21 05:48:15;;;;;;;1.47;1.10;;;24.40;58.90;;;;;;5035263;28;20443;-85
2022/04/21 05:50:45;;;;;;;1.50;1.30;;;24.40;58.90;;;;;;5034477;28;20490;-86
2022/04/21 05:53:20;;;;;;;1.57;1.47;;;24.40;58.90;;;;;;5046920;28;20476;-87
2022/04/21 05:55:47;;;;;;;1.43;1.33;;;24.40;58.90;;;;;;5055551;28;20908;-85
2022/04/21 05:58:14;;;;;;;2.13;1.10;;;24.40;58.90;;;;;;5055265;28;20477;-86
2022/04/21 06:00:41;;;;;;;1.57;1.47;;;24.40;59.10;;;;;;5054049;28;20445;-85
2022/04/21 06:03:08;;;;;;;1.63;1.20;;;24.40;59.00;;;;;;5054125;28;20474;-85
2022/04/21 06:05:38;;;;;;;1.50;1.40;;;24.40;59.00;;;;;;5054977;28;20442;-84
2022/04/21 06:08:07;;;;;;;1.40;1.20;;;24.40;58.90;;;;;;5047662;28;20443;-86
2022/04/21 06:10:33;;;;;;;2.17;1.37;;;24.40;58.90;;;;;;5056111;28;20495;-86
2022/04/21 06:13:02;;;;;;;1.37;1.27;;;24.40;59.00;;;;;;5058191;28;20449;-86
2022/04/21 06:15:31;;;;;;;1.93;1.60;;;24.40;59.00;;;;;;5055157;28;20456;-84
2022/04/21 06:17:58;;;;;;;1.70;1.50;;;24.40;58.90;;;;;;5054632;28;20802;-85
2022/04/21 06:20:25;;;;;;;4.90;1.67;;;24.30;58.90;;;;;;5054240;28;20434;-86
2022/04/21 06:22:53;;;;;;;4.03;2.17;;;24.30;59.00;;;;;;5054718;28;20446;-85
2022/04/21 06:25:21;;;;;;;3.20;1.77;;;24.30;58.80;;;;;;5053791;28;20442;-83
2022/04/21 06:27:48;;;;;;;3.00;1.77;;;24.30;58.80;;;;;;5054274;28;21004;-88
2022/04/21 06:30:14;;;;;;;4.00;2.07;;;24.20;59.00;;;;;;5036404;28;20493;-85
2022/04/21 06:32:41;;;;;;;2.40;1.60;;;24.20;59.10;;;;;;5053575;28;20465;-86
2022/04/21 06:35:09;;;;;;;3.60;1.47;;;24.30;59.40;;;;;;5054744;28;20845;-86
2022/04/21 06:37:35;;;;;;;4.70;1.30;;;24.30;59.60;;;;;;5054406;28;20441;-86
2022/04/21 06:40:04;;;;;;;3.10;1.90;;;24.40;59.90;;;;;;5054566;28;20948;-86
2022/04/21 06:42:31;;;;;;;2.13;1.37;;;24.40;59.80;;;;;;5053671;28;20489;-86
2022/04/21 06:50:26;;;;;;;2.70;1.87;;;24.40;60.20;;;;;;5053733;28;20586;-86
2022/04/21 06:52:52;;;;;;;4.53;1.90;;;24.40;60.00;;;;;;5053278;28;20940;-86
2022/04/21 06:55:20;;;;;;;3.07;1.30;;;24.40;60.20;;;;;;5054028;28;20446;-86
2022/04/21 06:57:49;;;;;;;3.00;1.77;;;24.40;60.20;;;;;;5053891;28;20473;-86
2022/04/21 07:00:16;;;;;;;5.53;1.60;;;24.40;60.00;;;;;;5054190;28;20441;-86
2022/04/21 07:02:43;;;;;;;2.23;1.57;;;24.40;60.10;;;;;;5053876;28;20828;-86
2022/04/21 07:05:11;;;;;;;9.53;1.60;;;24.40;60.00;;;;;;5053979;28;20445;-86
2022/04/21 07:07:40;;;;;;;1.97;1.37;;;24.40;60.00;;;;;;5054201;28;20453;-86
2022/04/21 07:10:08;;;;;;;3.23;1.57;;;24.50;60.10;;;;;;5053995;28;20485;-86
2022/04/21 07:12:36;;;;;;;2.70;1.60;;;24.40;60.00;;;;;;5053870;28;20438;-85
2022/04/21 07:15:06;;;;;;;1.47;1.37;;;24.50;60.00;;;;;;5054032;28;20441;-85
2022/04/21 07:17:33;;;;;;;4.83;1.67;;;24.50;60.00;;;;;;5053820;28;20444;-84
2022/04/21 07:20:00;;;;;;;3.20;1.63;;;24.50;59.60;;;;;;5053427;28;20818;-86
2022/04/21 07:22:27;;;;;;;2.60;1.40;;;24.40;59.20;;;;;;5053770;28;20450;-84
2022/04/21 07:24:54;;;;;;;2.00;1.70;;;24.40;59.30;;;;;;5053956;28;20442;-85
2022/04/21 07:27:21;;;;;;;1.63;1.23;;;24.50;59.40;;;;;;5054005;28;20442;-86
2022/04/21 07:29:49;;;;;;;2.43;1.70;;;24.50;59.60;;;;;;5053425;28;20481;-85
2022/04/21 07:32:18;;;;;;;2.77;2.10;;;24.50;59.50;;;;;;5053301;28;20462;-85
2022/04/21 07:34:45;;;;;;;2.37;1.90;;;24.50;59.30;;;;;;5049757;28;20441;-88
2022/04/21 07:37:12;;;;;;;2.93;1.70;;;24.50;59.10;;;;;;5037848;28;20798;-89
2022/04/21 07:39:40;;;;;;;2.63;1.43;;;24.50;59.00;;;;;;5053034;28;20475;-88
2022/04/21 07:42:07;;;;;;;2.10;1.33;;;24.50;59.00;;;;;;5043688;28;20450;-87
2022/04/21 07:44:35;;;;;;;1.60;1.50;;;24.50;58.90;;;;;;5051887;28;20455;-85
2022/04/21 07:47:04;;;;;;;2.73;1.37;;;24.50;58.80;;;;;;5073421;28;20895;-86
2022/04/21 07:49:46;;;;;;;3.10;1.30;;;24.50;58.90;;;;;;5073214;28;20437;-84
2022/04/21 07:55:06;;;;;;;2.03;1.10;;;24.50;59.30;;;;;;5053888;28;20529;-88
2022/04/21 07:57:33;;;;;;;3.57;1.67;;;24.50;59.40;;;;;;5049863;28;20470;-84
2022/04/21 07:59:59;;;;;;;1.33;1.17;;;24.60;59.30;;;;;;5052769;28;20450;-85
2022/04/21 08:02:28;;;;;;;2.27;1.33;;;24.70;59.00;;;;;;5052254;28;20453;-88
2022/04/21 08:04:54;;;;;;;2.33;1.50;;;24.50;58.50;;;;;;5053111;28;20543;-85
2022/04/21 08:07:21;;;;;;;2.27;1.40;;;24.60;58.70;;;;;;5052895;28;20445;-88
2022/04/21 08:09:48;;;;;;;1.97;1.43;;;24.60;59.10;;;;;;5053524;28;20486;-88
2022/04/21 08:12:14;;;;;;;1.20;1.10;;;24.60;59.50;;;;;;5052728;28;20461;-83
2022/04/21 08:14:41;;;;;;;1.70;1.50;;;24.60;59.60;;;;;;5052865;28;20438;-85
2022/04/21 08:17:08;;;;;;;1.37;1.27;;;24.60;59.70;;;;;;5052662;28;20446;-88
2022/04/21 08:19:36;;;;;;;2.03;1.33;;;24.70;59.80;;;;;;5052518;28;20472;-87
2022/04/21 08:22:03;;;;;;;2.23;1.30;;;24.70;59.90;;;;;;5052606;28;20442;-89
2022/04/21 08:32:45;;;;;;;2.23;1.30;;;24.80;59.80;;;;;;5052735;28;20477;-89
2022/04/21 08:35:14;;;;;;;3.07;1.40;;;24.80;59.80;;;;;;5052970;28;20457;-89
2022/04/21 08:37:42;;;;;;;2.13;1.00;;;24.80;59.70;;;;;;5052801;28;20442;-89
2022/04/21 08:40:10;;;;;;;1.50;1.20;;;24.80;59.60;;;;;;5052631;28;20446;-90
2022/04/21 08:42:39;;;;;;;2.90;1.30;;;24.90;59.60;;;;;;5052686;28;20445;-86
2022/04/21 08:45:07;;;;;;;1.60;1.50;;;24.90;59.60;;;;;;5052086;28;20450;-89
2022/04/21 08:47:35;;;;;;;1.63;1.40;;;24.90;59.60;;;;;;5052384;28;20450;-87
2022/04/21 08:50:06;;;;;;;1.20;1.00;;;24.90;59.60;;;;;;5055976;28;20477;-83
2022/04/21 08:52:35;;;;;;;1.50;1.20;;;25.00;59.60;;;;;;5054548;28;20814;-88
2022/04/21 08:55:03;;;;;;;1.37;1.10;;;25.00;59.40;;;;;;5056294;28;20463;-86
2022/04/21 08:57:31;;;;;;;1.30;1.13;;;25.00;59.50;;;;;;5055415;28;20484;-86
2022/04/21 08:59:59;;;;;;;1.43;1.30;;;25.10;59.40;;;;;;5055905;28;20449;-86
2022/04/21 09:02:36;;;;;;;1.53;1.13;;;25.10;59.30;;;;;;5054947;28;20468;-85
2022/04/21 09:05:04;;;;;;;2.60;1.67;;;25.10;59.00;;;;;;5055343;28;20452;-86
2022/04/21 09:07:31;;;;;;;2.03;1.40;;;25.10;58.60;;;;;;5055166;28;20438;-85
2022/04/21 09:10:05;;;;;;;2.27;1.10;;;25.10;58.90;;;;;;5052888;28;20496;-86
2022/04/21 09:12:33;;;;;;;1.30;1.20;;;25.10;58.90;;;;;;5054249;28;20448;-86
2022/04/21 09:15:07;;;;;;;1.40;1.30;;;25.10;59.00;;;;;;5055035;28;20438;-85
2022/04/21 09:17:40;;;;;;;3.63;1.27;;;25.10;58.80;;;;;;5054862;28;20442;-86
2022/04/21 09:20:08;;;;;;;3.70;1.37;;;25.10;58.90;;;;;;5053689;28;20442;-84
2022/04/21 09:22:35;;;;;;;1.97;1.30;;;25.10;58.80;;;;;;5044371;28;20453;-85
2022/04/21 09:25:04;;;;;;;3.87;1.30;;;25.10;57.30;;;;;;5054971;28;20442;-83
2022/04/21 09:27:41;;;;;;;4.67;1.40;;;25.10;57.20;;;;;;5054829;28;20809;-84
2022/04/21 09:30:12;;;;;;;2.73;1.30;;;25.10;57.90;;;;;;5051854;28;20828;-83
2022/04/21 09:32:40;;;;;;;1.37;1.07;;;25.00;58.70;;;;;;5054152;28;20519;-83
2022/04/21 09:35:08;;;;;;;2.03;1.40;;;25.00;58.30;;;;;;5054347;28;20446;-83
2022/04/21 09:37:45;;;;;;;2.60;1.10;;;25.00;58.30;;;;;;5053720;28;20453;-85
2022/04/21 09:40:15;;;;;;;1.30;1.20;;;25.00;58.30;;;;;;5054415;28;20445;-81
2022/04/21 09:42:42;;;;;;;1.70;1.20;;;25.00;58.40;;;;;;5054759;28;20442;-81
2022/04/21 09:47:55;;;;;;;1.40;1.13;;;25.00;58.40;;;;;;5054594;28;20924;-83
2022/04/21 09:50:24;;;;;;;2.60;1.37;;;25.00;58.50;;;;;;5054205;28;20509;-83
2022/04/21 09:52:53;;;;;;;1.33;1.03;;;25.00;58.60;;;;;;5054297;28;20446;-82
2022/04/21 09:55:30;;;;;;;1.73;1.50;;;25.00;58.50;;;;;;5054418;28;20449;-84
2022/04/21 09:58:05;;;;;;;1.70;1.40;;;25.00;57.20;;;;;;5053651;28;20550;-82
2022/04/21 10:00:33;;;;;;;2.53;1.50;;;25.00;57.90;;;;;;5053220;28;20544;-86
2022/04/21 10:03:02;;;;;;;1.70;1.40;;;24.90;58.00;;;;;;5054339;28;20952;-83
2022/04/21 10:05:31;;;;;;;2.00;1.57;;;24.90;58.00;;;;;;5054045;28;20441;-83
2022/04/21 10:08:00;;;;;;;2.53;1.30;;;24.90;58.20;;;;;;5050314;28;20443;-83
2022/04/21 10:10:29;;;;;;;2.27;1.30;;;24.90;58.20;;;;;;5053439;28;20490;-86
2022/04/21 10:12:57;;;;;;;4.03;1.13;;;24.90;58.20;;;;;;5053220;28;20442;-84
2022/04/21 10:15:25;;;;;;;3.20;1.20;;;24.90;58.20;;;;;;5044717;28;20809;-83
2022/04/21 10:17:52;;;;;;;1.50;1.40;;;24.90;58.20;;;;;;5034369;28;20453;-82
2022/04/21 10:20:22;;;;;;;1.43;1.17;;;24.80;57.40;;;;;;5034653;28;20449;-82
2022/04/21 10:22:50;;;;;;;1.40;1.00;;;24.90;57.10;;;;;;5045872;28;20436;-84
2022/04/21 10:25:18;;;;;;;1.30;1.10;;;24.80;57.30;;;;;;5046469;28;20446;-84
2022/04/21 10:27:49;;;;;;;4.80;1.20;;;24.90;57.90;;;;;;5055267;28;20449;-85
2022/04/21 10:30:20;;;;;;;2.40;1.20;;;24.90;58.10;;;;;;5055525;28;20449;-85
2022/04/21 10:32:52;;;;;;;1.20;0.93;;;24.90;58.30;;;;;;5055518;28;20468;-85
2022/04/21 10:35:20;;;;;;;1.40;0.97;;;24.90;58.30;;;;;;5055803;28;20452;-84
2022/04/21 10:37:47;;;;;;;1.80;1.27;;;24.90;58.40;;;;;;5034104;28;20495;-82
2022/04/21 10:40:21;;;;;;;2.20;1.03;;;24.90;58.40;;;;;;5054836;28;20492;-83
2022/04/21 10:43:03;;;;;;;2.00;1.30;;;24.90;58.60;;;;;;5053901;28;20876;-84
2022/04/21 10:45:31;;;;;;;1.60;1.30;;;24.90;59.00;;;;;;5053837;28;20449;-84
2022/04/21 10:48:07;;;;;;;2.70;1.10;;;24.90;58.30;;;;;;5053889;28;20500;-84
2022/04/21 10:50:34;;;;;;;2.07;1.20;;;25.00;58.40;;;;;;5053983;28;20562;-83
2022/04/21 10:58:58;;;;;;;3.33;1.00;;;24.90;58.10;;;;;;5053557;28;20464;-82
2022/04/21 11:01:28;;;;;;;2.50;1.53;;;25.00;56.90;;;;;;5053484;28;20472;-81
2022/04/21 11:04:12;;;;;;;1.97;1.00;;;24.90;56.60;;;;;;5053761;28;20568;-83
2022/04/21 11:06:41;;;;;;;1.60;1.17;;;24.90;57.00;;;;;;5053736;28;20441;-82
2022/04/21 11:09:08;;;;;;;1.20;1.00;;;24.90;57.70;;;;;;5053168;28;20507;-83
2022/04/21 11:11:47;;;;;;;4.43;1.33;;;25.00;58.20;;;;;;5053254;28;20485;-83
2022/04/21 11:14:31;;;;;;;1.70;1.00;;;25.00;58.30;;;;;;5053318;28;20474;-82
2022/04/21 11:16:59;;;;;;;2.20;1.27;;;25.00;58.30;;;;;;5052326;28;20492;-83
2022/04/21 11:19:53;;;;;;;1.40;1.00;;;25.00;58.30;;;;;;5052082;28;20444;-81
2022/04/21 11:22:40;;;;;;;1.50;0.97;;;25.10;58.40;;;;;;5034172;28;20466;-83
2022/04/21 11:25:08;;;;;;;3.27;1.47;;;25.20;58.50;;;;;;5033379;28;20446;-83
2022/04/21 11:27:42;;;;;;;2.50;1.57;;;25.10;58.40;;;;;;5035919;28;20446;-83
2022/04/21 11:30:13;;;;;;;1.30;1.10;;;25.20;58.50;;;;;;5053127;28;20445;-83
2022/04/21 11:32:40;;;;;;;1.47;1.37;;;25.20;58.50;;;;;;5053459;28;21014;-83
2022/04/21 11:35:10;;;;;;;1.60;1.50;;;25.20;58.50;;;;;;5053307;28;20442;-83
2022/04/21 11:37:57;;;;;;;3.30;1.57;;;25.20;58.50;;;;;;5052893;28;20434;-83
2022/04/21 11:40:35;;;;;;;1.30;1.20;;;25.20;57.20;;;;;;5052956;28;20449;-83
2022/04/21 11:43:05;;;;;;;2.93;1.50;;;25.20;58.30;;;;;;5053219;28;20456;-82
2022/04/21 11:45:36;;;;;;;3.57;1.50;;;25.20;59.40;;;;;;5052926;28;20446;-82
2022/04/21 11:48:11;;;;;;;3.07;1.90;;;25.20;58.70;;;;;;5053321;28;20504;-84
2022/04/21 11:50:37;;;;;;;1.80;1.70;;;25.30;58.70;;;;;;5053019;28;20477;-83
2022/04/21 11:53:14;;;;;;;2.70;1.70;;;25.20;58.80;;;;;;5052614;28;20441;-80
2022/04/21 11:55:42;;;;;;;1.50;1.40;;;25.30;58.50;;;;;;5052573;28;20441;-81
2022/04/21 11:58:10;;;;;;;2.20;1.77;;;25.20;58.20;;;;;;5053739;28;20469;-89
2022/04/21 12:08:51;;;;;;;3.33;1.47;;;25.20;50.30;;;;;;5054530;28;20414;-90
2022/04/21 12:19:10;;;;;;;5.20;2.07;;;25.30;51.80;;;;;;4992360;28;20881;-89
2022/04/21 12:21:38;;;;;;;3.57;1.83;;;25.20;51.90;;;;;;4992022;28;20435;-88
2022/04/21 12:24:14;;;;;;;2.00;1.40;;;25.20;51.20;;;;;;5051761;28;20434;-87
2022/04/21 12:26:48;;;;;;;9.03;1.77;;;25.20;51.00;;;;;;5056892;28;20437;-85
2022/04/21 12:29:15;;;;;;;2.80;1.80;;;25.20;50.60;;;;;;5057028;28;20444;-85
2022/04/21 12:31:47;;;;;;;2.77;1.77;;;25.20;50.40;;;;;;5056872;28;20485;-88
2022/04/21 12:34:21;;;;;;;2.90;1.70;;;25.20;49.70;;;;;;5049472;28;20473;-88
2022/04/21 12:36:52;;;;;;;2.50;1.37;;;25.20;49.90;;;;;;5057324;28;20425;-85
2022/04/21 12:39:20;;;;;;;2.17;1.80;;;25.20;49.90;;;;;;5057241;28;20453;-88
2022/04/21 12:41:47;;;;;;;1.80;1.70;;;25.20;49.40;;;;;;5039079;28;20520;-87
2022/04/21 12:44:16;;;;;;;2.07;1.63;;;25.20;49.70;;;;;;5056882;28;20932;-92
2022/04/21 12:46:42;;;;;;;2.00;1.50;;;25.20;49.70;;;;;;5056813;28;20477;-88
2022/04/21 12:49:09;;;;;;;4.27;1.90;;;25.20;50.10;;;;;;5038932;28;20847;-89
2022/04/21 12:51:48;;;;;;;2.17;1.97;;;25.30;50.70;;;;;;5056799;28;20484;-87
2022/04/21 12:54:25;;;;;;;1.37;1.23;;;25.30;50.50;;;;;;5056963;28;20444;-87
2022/04/21 12:56:54;;;;;;;3.00;1.83;;;25.30;50.70;;;;;;5056662;28;20507;-87
2022/04/21 12:59:21;;;;;;;1.60;1.50;;;25.30;51.50;;;;;;5056825;28;20450;-88
2022/04/21 13:01:48;;;;;;;1.67;1.40;;;25.30;50.50;;;;;;5056148;28;20469;-85
2022/04/21 13:04:15;;;;;;;6.27;1.63;;;25.30;50.70;;;;;;5038678;28;20441;-85
2022/04/21 13:06:43;;;;;;;1.47;1.37;;;25.30;50.90;;;;;;5056327;28;20808;-89
2022/04/21 13:09:10;;;;;;;1.93;1.60;;;25.30;51.10;;;;;;5058207;28;20449;-86
2022/04/21 13:11:37;;;;;;;2.20;1.30;;;25.40;51.20;;;;;;5062557;28;20485;-87
2022/04/21 13:14:04;;;;;;;1.60;1.33;;;25.30;51.00;;;;;;5059411;28;20444;-85
2022/04/21 13:16:31;;;;;;;1.60;1.40;;;25.40;51.30;;;;;;5056061;28;20445;-87
2022/04/21 13:18:58;;;;;;;2.60;1.43;;;25.40;51.40;;;;;;5056069;28;20489;-88
2022/04/21 13:24:10;;;;;;;1.77;1.30;;;25.50;51.20;;;;;;5056079;28;20772;-89
2022/04/21 13:26:37;;;;;;;2.60;1.53;;;25.50;51.40;;;;;;5055682;28;20472;-88
2022/04/21 13:29:06;;;;;;;1.50;1.37;;;25.60;51.60;;;;;;5056063;28;20442;-86
2022/04/21 13:34:17;;;;;;;3.13;1.30;;;25.50;51.40;;;;;;5056238;28;20437;-88
2022/04/21 13:36:43;;;;;;;2.23;1.40;;;25.50;51.40;;;;;;5056040;28;20442;-85
2022/04/21 13:39:12;;;;;;;2.07;1.87;;;25.50;51.60;;;;;;5056445;28;20442;-91
2022/04/21 13:41:39;;;;;;;1.30;1.20;;;25.60;51.90;;;;;;5056456;28;20801;-90
2022/04/21 13:44:07;;;;;;;2.07;1.40;;;25.80;51.90;;;;;;5056829;28;20446;-90
2022/04/21 13:46:35;;;;;;;1.60;1.27;;;25.60;51.80;;;;;;5056556;28;20445;-87
2022/04/21 13:49:03;;;;;;;1.43;1.27;;;25.60;52.20;;;;;;5055988;28;20488;-89
2022/04/21 13:51:29;;;;;;;2.63;1.30;;;25.60;52.10;;;;;;5056350;28;20473;-90
2022/04/21 13:53:56;;;;;;;2.23;1.23;;;25.60;52.00;;;;;;5056624;28;20450;-91
2022/04/21 13:56:25;;;;;;;3.00;1.53;;;25.60;51.60;;;;;;5055952;28;20442;-88
2022/04/21 13:58:52;;;;;;;1.67;1.57;;;25.60;52.10;;;;;;5054884;28;20445;-81
2022/04/21 14:01:20;;;;;;;2.53;1.70;;;25.60;52.10;;;;;;5053586;28;20822;-82
2022/04/21 14:03:47;;;;;;;2.17;1.23;;;25.60;52.20;;;;;;5054241;28;20453;-82
2022/04/21 14:06:14;;;;;;;1.20;1.10;;;25.60;52.20;;;;;;5054242;28;20441;-82
2022/04/21 14:08:44;;;;;;;3.33;1.33;;;25.60;52.50;;;;;;5052127;28;20449;-81